sensor_id;sensor_type;location;lat;lon;timestamp;temperature;humidity
59282;DHT22;45054;52.062;10.010;2024-03-08T00:01:37;1.80;99.90
59282;DHT22;45054;52.062;10.010;2024-03-08T00:04:03;1.80;99.90
59282;DHT22;45054;52.062;10.010;2024-03-08T00:06:28;1.80;99.90
59282;DHT22;45054;52.062;10.010;2024-03-08T00:08:54;1.70;99.90
59282;DHT22;45054;52.062;10.010;2024-03-08T00:11:21;1.80;99.90
59282;DHT22;45054;52.062;10.010;2024-03-08T00:13:46;1.80;99.90
59282;DHT22;45054;52.062;10.010;2024-03-08T00:16:12;1.80;99.90
59282;DHT22;45054;52.062;10.010;2024-03-08T00:18:38;1.80;99.90
59282;DHT22;45054;52.062;10.010;2024-03-08T00:21:03;1.80;99.90
59282;DHT22;45054;52.062;10.010;2024-03-08T00:23:29;1.70;99.90
59282;DHT22;45054;52.062;10.010;2024-03-08T00:25:55;1.70;99.90
59282;DHT22;45054;52.062;10.010;2024-03-08T00:28:21;1.60;99.90
59282;DHT22;45054;52.062;10.010;2024-03-08T00:30:47;1.60;99.90
59282;DHT22;45054;52.062;10.010;2024-03-08T00:33:13;1.50;99.90
59282;DHT22;45054;52.062;10.010;2024-03-08T00:35:38;1.50;99.90
59282;DHT22;45054;52.062;10.010;2024-03-08T00:38:04;1.50;99.90
59282;DHT22;45054;52.062;10.010;2024-03-08T00:40:29;1.50;99.90
59282;DHT22;45054;52.062;10.010;2024-03-08T00:42:55;1.50;99.90
59282;DHT22;45054;52.062;10.010;2024-03-08T00:45:22;1.50;99.90
59282;DHT22;45054;52.062;10.010;2024-03-08T00:47:47;1.40;99.90
59282;DHT22;45054;52.062;10.010;2024-03-08T00:50:13;1.50;99.90
59282;DHT22;45054;52.062;10.010;2024-03-08T00:52:38;1.50;99.90
59282;DHT22;45054;52.062;10.010;2024-03-08T00:55:05;1.50;99.90
59282;DHT22;45054;52.062;10.010;2024-03-08T00:57:30;1.50;99.90
59282;DHT22;45054;52.062;10.010;2024-03-08T00:59:56;1.40;99.90
59282;DHT22;45054;52.062;10.010;2024-03-08T01:02:23;1.40;99.90
59282;DHT22;45054;52.062;10.010;2024-03-08T01:04:48;1.40;99.90
59282;DHT22;45054;52.062;10.010;2024-03-08T01:07:14;1.40;99.90
59282;DHT22;45054;52.062;10.010;2024-03-08T01:09:39;1.40;99.90
59282;DHT22;45054;52.062;10.010;2024-03-08T01:12:05;1.40;99.90
59282;DHT22;45054;52.062;10.010;2024-03-08T01:14:31;1.30;99.90
59282;DHT22;45054;52.062;10.010;2024-03-08T01:16:57;1.30;99.90
59282;DHT22;45054;52.062;10.010;2024-03-08T01:19:24;1.30;99.90
59282;DHT22;45054;52.062;10.010;2024-03-08T01:21:49;1.20;99.90
59282;DHT22;45054;52.062;10.010;2024-03-08T01:24:15;1.20;99.90
59282;DHT22;45054;52.062;10.010;2024-03-08T01:26:41;1.20;99.90
59282;DHT22;45054;52.062;10.010;2024-03-08T01:29:06;1.20;99.90
59282;DHT22;45054;52.062;10.010;2024-03-08T01:31:32;1.20;99.90
59282;DHT22;45054;52.062;10.010;2024-03-08T01:33:58;1.20;99.90
59282;DHT22;45054;52.062;10.010;2024-03-08T01:36:25;1.30;99.90
59282;DHT22;45054;52.062;10.010;2024-03-08T01:38:51;1.20;99.90
59282;DHT22;45054;52.062;10.010;2024-03-08T01:41:17;1.20;99.90
59282;DHT22;45054;52.062;10.010;2024-03-08T01:43:42;1.10;99.90
59282;DHT22;45054;52.062;10.010;2024-03-08T01:46:09;1.10;99.90
59282;DHT22;45054;52.062;10.010;2024-03-08T01:48:36;1.10;99.90
59282;DHT22;45054;52.062;10.010;2024-03-08T01:51:02;1.00;99.90
59282;DHT22;45054;52.062;10.010;2024-03-08T01:53:30;0.90;99.90
59282;DHT22;45054;52.062;10.010;2024-03-08T01:55:57;0.90;99.90
59282;DHT22;45054;52.062;10.010;2024-03-08T01:58:23;0.90;99.90
59282;DHT22;45054;52.062;10.010;2024-03-08T02:00:49;0.90;99.90
59282;DHT22;45054;52.062;10.010;2024-03-08T02:03:15;0.90;99.90
59282;DHT22;45054;52.062;10.010;2024-03-08T02:05:41;0.90;99.90
59282;DHT22;45054;52.062;10.010;2024-03-08T02:08:06;0.80;99.90
59282;DHT22;45054;52.062;10.010;2024-03-08T02:10:34;0.80;99.90
59282;DHT22;45054;52.062;10.010;2024-03-08T02:13:01;0.70;99.90
59282;DHT22;45054;52.062;10.010;2024-03-08T02:15:50;0.70;99.90
59282;DHT22;45054;52.062;10.010;2024-03-08T02:18:16;0.70;99.90
59282;DHT22;45054;52.062;10.010;2024-03-08T02:20:43;0.60;99.90
59282;DHT22;45054;52.062;10.010;2024-03-08T02:23:09;0.60;99.90
59282;DHT22;45054;52.062;10.010;2024-03-08T02:25:35;0.60;99.90
59282;DHT22;45054;52.062;10.010;2024-03-08T02:28:00;0.60;99.90
59282;DHT22;45054;52.062;10.010;2024-03-08T02:30:26;0.60;99.90
59282;DHT22;45054;52.062;10.010;2024-03-08T02:32:52;0.60;99.90
59282;DHT22;45054;52.062;10.010;2024-03-08T02:35:17;0.60;99.90
59282;DHT22;45054;52.062;10.010;2024-03-08T02:37:44;0.60;99.90
59282;DHT22;45054;52.062;10.010;2024-03-08T02:40:11;0.60;99.90
59282;DHT22;45054;52.062;10.010;2024-03-08T02:42:36;0.60;99.90
59282;DHT22;45054;52.062;10.010;2024-03-08T02:45:03;0.70;99.90
59282;DHT22;45054;52.062;10.010;2024-03-08T02:47:28;0.70;99.90
59282;DHT22;45054;52.062;10.010;2024-03-08T02:49:54;0.60;99.90
59282;DHT22;45054;52.062;10.010;2024-03-08T02:52:19;0.60;99.90
59282;DHT22;45054;52.062;10.010;2024-03-08T02:54:47;0.50;99.90
59282;DHT22;45054;52.062;10.010;2024-03-08T02:57:12;0.50;99.90
59282;DHT22;45054;52.062;10.010;2024-03-08T02:59:38;0.50;99.90
59282;DHT22;45054;52.062;10.010;2024-03-08T03:02:04;0.50;99.90
59282;DHT22;45054;52.062;10.010;2024-03-08T03:04:29;0.50;99.90
59282;DHT22;45054;52.062;10.010;2024-03-08T03:06:55;0.50;99.90
59282;DHT22;45054;52.062;10.010;2024-03-08T03:09:20;0.50;99.90
59282;DHT22;45054;52.062;10.010;2024-03-08T03:11:47;0.50;99.90
59282;DHT22;45054;52.062;10.010;2024-03-08T03:14:13;0.50;99.90
59282;DHT22;45054;52.062;10.010;2024-03-08T03:16:38;0.50;99.90
59282;DHT22;45054;52.062;10.010;2024-03-08T03:19:04;0.50;99.90
59282;DHT22;45054;52.062;10.010;2024-03-08T03:21:30;0.70;99.90
59282;DHT22;45054;52.062;10.010;2024-03-08T03:23:55;0.70;99.90
59282;DHT22;45054;52.062;10.010;2024-03-08T03:26:21;0.80;99.90
59282;DHT22;45054;52.062;10.010;2024-03-08T03:28:48;0.80;99.90
59282;DHT22;45054;52.062;10.010;2024-03-08T03:31:13;0.70;99.90
59282;DHT22;45054;52.062;10.010;2024-03-08T03:33:39;0.70;99.90
59282;DHT22;45054;52.062;10.010;2024-03-08T03:36:05;0.70;99.90
59282;DHT22;45054;52.062;10.010;2024-03-08T03:38:30;0.70;99.90
59282;DHT22;45054;52.062;10.010;2024-03-08T03:40:56;0.70;99.90
59282;DHT22;45054;52.062;10.010;2024-03-08T03:43:21;0.80;99.90
59282;DHT22;45054;52.062;10.010;2024-03-08T03:45:48;0.80;99.90
59282;DHT22;45054;52.062;10.010;2024-03-08T03:48:14;0.90;99.90
59282;DHT22;45054;52.062;10.010;2024-03-08T03:50:42;1.00;99.90
59282;DHT22;45054;52.062;10.010;2024-03-08T03:53:08;1.00;99.90
59282;DHT22;45054;52.062;10.010;2024-03-08T03:55:33;1.10;99.90
59282;DHT22;45054;52.062;10.010;2024-03-08T03:57:59;1.10;99.90
59282;DHT22;45054;52.062;10.010;2024-03-08T04:00:25;1.10;99.90
59282;DHT22;45054;52.062;10.010;2024-03-08T04:02:52;1.10;99.90
59282;DHT22;45054;52.062;10.010;2024-03-08T04:05:17;1.10;99.90
59282;DHT22;45054;52.062;10.010;2024-03-08T04:07:43;1.10;99.90
59282;DHT22;45054;52.062;10.010;2024-03-08T04:10:09;1.10;99.90
59282;DHT22;45054;52.062;10.010;2024-03-08T04:12:35;1.10;99.90
59282;DHT22;45054;52.062;10.010;2024-03-08T04:15:00;1.00;99.90
59282;DHT22;45054;52.062;10.010;2024-03-08T04:17:26;1.00;99.90
59282;DHT22;45054;52.062;10.010;2024-03-08T04:19:53;1.00;99.90
59282;DHT22;45054;52.062;10.010;2024-03-08T04:22:19;1.00;99.90
59282;DHT22;45054;52.062;10.010;2024-03-08T04:24:45;1.00;99.90
59282;DHT22;45054;52.062;10.010;2024-03-08T04:27:11;0.90;99.90
59282;DHT22;45054;52.062;10.010;2024-03-08T04:29:37;0.90;99.90
59282;DHT22;45054;52.062;10.010;2024-03-08T04:32:03;0.90;99.90
59282;DHT22;45054;52.062;10.010;2024-03-08T04:34:29;0.90;99.90
59282;DHT22;45054;52.062;10.010;2024-03-08T04:36:56;0.90;99.90
59282;DHT22;45054;52.062;10.010;2024-03-08T04:39:22;0.90;99.90
59282;DHT22;45054;52.062;10.010;2024-03-08T04:41:48;0.90;99.90
59282;DHT22;45054;52.062;10.010;2024-03-08T04:44:14;0.90;99.90
59282;DHT22;45054;52.062;10.010;2024-03-08T04:46:40;0.80;99.90
59282;DHT22;45054;52.062;10.010;2024-03-08T04:49:05;0.80;99.90
59282;DHT22;45054;52.062;10.010;2024-03-08T04:51:31;0.80;99.90
59282;DHT22;45054;52.062;10.010;2024-03-08T04:53:58;0.80;99.90
59282;DHT22;45054;52.062;10.010;2024-03-08T04:56:23;0.80;99.90
59282;DHT22;45054;52.062;10.010;2024-03-08T04:58:49;0.70;99.90
59282;DHT22;45054;52.062;10.010;2024-03-08T05:01:14;0.70;99.90
59282;DHT22;45054;52.062;10.010;2024-03-08T05:03:40;0.70;99.90
59282;DHT22;45054;52.062;10.010;2024-03-08T05:06:06;0.70;99.90
59282;DHT22;45054;52.062;10.010;2024-03-08T05:08:31;0.70;99.90
59282;DHT22;45054;52.062;10.010;2024-03-08T05:11:00;0.70;99.90
59282;DHT22;45054;52.062;10.010;2024-03-08T05:13:26;0.60;99.90
59282;DHT22;45054;52.062;10.010;2024-03-08T05:15:51;0.70;99.90
59282;DHT22;45054;52.062;10.010;2024-03-08T05:18:17;0.60;99.90
59282;DHT22;45054;52.062;10.010;2024-03-08T05:20:43;0.60;99.90
59282;DHT22;45054;52.062;10.010;2024-03-08T05:23:08;0.60;99.90
59282;DHT22;45054;52.062;10.010;2024-03-08T05:25:34;0.60;99.90
59282;DHT22;45054;52.062;10.010;2024-03-08T05:28:01;0.60;99.90
59282;DHT22;45054;52.062;10.010;2024-03-08T05:30:26;0.60;99.90
59282;DHT22;45054;52.062;10.010;2024-03-08T05:32:52;0.50;99.90
59282;DHT22;45054;52.062;10.010;2024-03-08T05:35:18;0.50;99.90
59282;DHT22;45054;52.062;10.010;2024-03-08T05:37:43;0.50;99.90
59282;DHT22;45054;52.062;10.010;2024-03-08T05:40:09;0.50;99.90
59282;DHT22;45054;52.062;10.010;2024-03-08T05:42:35;0.50;99.90
59282;DHT22;45054;52.062;10.010;2024-03-08T05:45:02;0.50;99.90
59282;DHT22;45054;52.062;10.010;2024-03-08T05:47:28;0.50;99.90
59282;DHT22;45054;52.062;10.010;2024-03-08T05:49:53;0.50;99.90
59282;DHT22;45054;52.062;10.010;2024-03-08T05:52:19;0.50;99.90
59282;DHT22;45054;52.062;10.010;2024-03-08T05:54:44;0.50;99.90
59282;DHT22;45054;52.062;10.010;2024-03-08T05:57:10;0.50;99.90
59282;DHT22;45054;52.062;10.010;2024-03-08T05:59:35;0.50;99.90
59282;DHT22;45054;52.062;10.010;2024-03-08T06:02:02;0.60;99.90
59282;DHT22;45054;52.062;10.010;2024-03-08T06:04:28;0.60;99.90
59282;DHT22;45054;52.062;10.010;2024-03-08T06:06:54;0.60;99.90
59282;DHT22;45054;52.062;10.010;2024-03-08T06:09:19;0.60;99.90
59282;DHT22;45054;52.062;10.010;2024-03-08T06:11:45;0.60;99.90
59282;DHT22;45054;52.062;10.010;2024-03-08T06:14:10;0.60;99.90
59282;DHT22;45054;52.062;10.010;2024-03-08T06:16:36;0.50;99.90
59282;DHT22;45054;52.062;10.010;2024-03-08T06:19:03;0.60;99.90
59282;DHT22;45054;52.062;10.010;2024-03-08T06:21:28;0.60;99.90
59282;DHT22;45054;52.062;10.010;2024-03-08T06:23:54;0.50;99.90
59282;DHT22;45054;52.062;10.010;2024-03-08T06:26:20;0.60;99.90
59282;DHT22;45054;52.062;10.010;2024-03-08T06:28:45;0.60;99.90
59282;DHT22;45054;52.062;10.010;2024-03-08T06:31:11;0.60;99.90
59282;DHT22;45054;52.062;10.010;2024-03-08T06:33:36;0.60;99.90
59282;DHT22;45054;52.062;10.010;2024-03-08T06:36:04;0.60;99.90
59282;DHT22;45054;52.062;10.010;2024-03-08T06:38:29;0.60;99.90
59282;DHT22;45054;52.062;10.010;2024-03-08T06:40:55;0.60;99.90
59282;DHT22;45054;52.062;10.010;2024-03-08T06:43:21;0.60;99.90
59282;DHT22;45054;52.062;10.010;2024-03-08T06:45:46;0.60;99.90
59282;DHT22;45054;52.062;10.010;2024-03-08T06:48:12;0.60;99.90
59282;DHT22;45054;52.062;10.010;2024-03-08T06:50:38;0.60;99.90
59282;DHT22;45054;52.062;10.010;2024-03-08T06:53:05;0.60;99.90
59282;DHT22;45054;52.062;10.010;2024-03-08T06:55:30;0.70;99.90
59282;DHT22;45054;52.062;10.010;2024-03-08T06:57:56;0.60;99.90
59282;DHT22;45054;52.062;10.010;2024-03-08T07:00:22;0.70;99.90
59282;DHT22;45054;52.062;10.010;2024-03-08T07:02:47;0.60;99.90
59282;DHT22;45054;52.062;10.010;2024-03-08T07:05:13;0.60;99.90
59282;DHT22;45054;52.062;10.010;2024-03-08T07:07:38;0.60;99.90
59282;DHT22;45054;52.062;10.010;2024-03-08T07:10:06;0.70;99.90
59282;DHT22;45054;52.062;10.010;2024-03-08T07:12:32;0.70;99.90
59282;DHT22;45054;52.062;10.010;2024-03-08T07:14:57;0.70;99.90
59282;DHT22;45054;52.062;10.010;2024-03-08T07:17:23;0.70;99.90
59282;DHT22;45054;52.062;10.010;2024-03-08T07:19:48;0.80;99.90
59282;DHT22;45054;52.062;10.010;2024-03-08T07:22:14;0.80;99.90
59282;DHT22;45054;52.062;10.010;2024-03-08T07:24:40;0.80;99.90
59282;DHT22;45054;52.062;10.010;2024-03-08T07:27:07;0.80;99.90
59282;DHT22;45054;52.062;10.010;2024-03-08T07:29:32;0.90;99.90
59282;DHT22;45054;52.062;10.010;2024-03-08T07:31:58;0.90;99.90
59282;DHT22;45054;52.062;10.010;2024-03-08T07:34:23;0.90;99.90
59282;DHT22;45054;52.062;10.010;2024-03-08T07:36:49;0.90;99.90
59282;DHT22;45054;52.062;10.010;2024-03-08T07:39:15;0.90;99.90
59282;DHT22;45054;52.062;10.010;2024-03-08T07:41:40;0.90;99.90
59282;DHT22;45054;52.062;10.010;2024-03-08T07:44:07;0.90;99.90
59282;DHT22;45054;52.062;10.010;2024-03-08T07:46:33;0.90;99.90
59282;DHT22;45054;52.062;10.010;2024-03-08T07:48:59;1.00;99.90
59282;DHT22;45054;52.062;10.010;2024-03-08T07:51:24;1.00;99.90
59282;DHT22;45054;52.062;10.010;2024-03-08T07:53:50;1.10;99.90
59282;DHT22;45054;52.062;10.010;2024-03-08T07:56:15;1.20;99.90
59282;DHT22;45054;52.062;10.010;2024-03-08T07:58:41;1.20;99.90
59282;DHT22;45054;52.062;10.010;2024-03-08T08:01:08;1.20;99.90
59282;DHT22;45054;52.062;10.010;2024-03-08T08:03:33;1.30;99.90
59282;DHT22;45054;52.062;10.010;2024-03-08T08:05:59;1.40;99.90
59282;DHT22;45054;52.062;10.010;2024-03-08T08:08:24;1.40;99.90
59282;DHT22;45054;52.062;10.010;2024-03-08T08:10:50;1.50;99.90
59282;DHT22;45054;52.062;10.010;2024-03-08T08:13:16;1.60;99.90
59282;DHT22;45054;52.062;10.010;2024-03-08T08:15:41;1.70;99.90
59282;DHT22;45054;52.062;10.010;2024-03-08T08:18:08;1.80;99.90
59282;DHT22;45054;52.062;10.010;2024-03-08T08:20:34;1.90;99.90
59282;DHT22;45054;52.062;10.010;2024-03-08T08:22:59;2.00;99.90
59282;DHT22;45054;52.062;10.010;2024-03-08T08:25:25;2.10;99.90
59282;DHT22;45054;52.062;10.010;2024-03-08T08:27:50;2.20;99.90
59282;DHT22;45054;52.062;10.010;2024-03-08T08:30:16;2.20;99.90
59282;DHT22;45054;52.062;10.010;2024-03-08T08:32:42;2.30;99.90
59282;DHT22;45054;52.062;10.010;2024-03-08T08:35:09;2.40;99.90
59282;DHT22;45054;52.062;10.010;2024-03-08T08:37:34;2.50;99.90
59282;DHT22;45054;52.062;10.010;2024-03-08T08:40:00;2.60;99.90
59282;DHT22;45054;52.062;10.010;2024-03-08T08:42:25;2.60;99.90
59282;DHT22;45054;52.062;10.010;2024-03-08T08:44:51;2.70;99.90
59282;DHT22;45054;52.062;10.010;2024-03-08T08:47:17;2.70;99.90
59282;DHT22;45054;52.062;10.010;2024-03-08T08:49:42;2.70;99.90
59282;DHT22;45054;52.062;10.010;2024-03-08T08:52:09;2.80;99.90
59282;DHT22;45054;52.062;10.010;2024-03-08T08:54:35;2.90;99.90
59282;DHT22;45054;52.062;10.010;2024-03-08T08:57:00;2.90;99.90
59282;DHT22;45054;52.062;10.010;2024-03-08T08:59:26;3.00;99.90
59282;DHT22;45054;52.062;10.010;2024-03-08T09:01:51;3.10;99.90
59282;DHT22;45054;52.062;10.010;2024-03-08T09:04:17;3.20;99.90
59282;DHT22;45054;52.062;10.010;2024-03-08T09:06:42;3.20;99.90
59282;DHT22;45054;52.062;10.010;2024-03-08T09:09:09;3.20;99.90
59282;DHT22;45054;52.062;10.010;2024-03-08T09:11:35;3.20;99.90
59282;DHT22;45054;52.062;10.010;2024-03-08T09:14:00;3.20;99.90
59282;DHT22;45054;52.062;10.010;2024-03-08T09:16:26;3.30;99.90
59282;DHT22;45054;52.062;10.010;2024-03-08T09:18:52;3.30;99.90
59282;DHT22;45054;52.062;10.010;2024-03-08T09:21:17;3.50;99.90
59282;DHT22;45054;52.062;10.010;2024-03-08T09:23:43;3.50;99.90
59282;DHT22;45054;52.062;10.010;2024-03-08T09:26:10;3.50;99.90
59282;DHT22;45054;52.062;10.010;2024-03-08T09:28:35;3.50;99.90
59282;DHT22;45054;52.062;10.010;2024-03-08T09:31:01;3.60;99.90
59282;DHT22;45054;52.062;10.010;2024-03-08T09:33:26;3.60;99.90
59282;DHT22;45054;52.062;10.010;2024-03-08T09:35:52;3.60;99.90
59282;DHT22;45054;52.062;10.010;2024-03-08T09:38:17;3.70;99.90
59282;DHT22;45054;52.062;10.010;2024-03-08T09:40:43;3.70;99.90
59282;DHT22;45054;52.062;10.010;2024-03-08T09:43:10;3.80;99.90
59282;DHT22;45054;52.062;10.010;2024-03-08T09:45:36;3.80;99.90
59282;DHT22;45054;52.062;10.010;2024-03-08T09:48:02;3.90;99.90
59282;DHT22;45054;52.062;10.010;2024-03-08T09:50:27;4.00;99.90
59282;DHT22;45054;52.062;10.010;2024-03-08T09:52:53;4.10;99.90
59282;DHT22;45054;52.062;10.010;2024-03-08T09:55:21;4.20;99.90
59282;DHT22;45054;52.062;10.010;2024-03-08T09:57:48;4.20;99.90
59282;DHT22;45054;52.062;10.010;2024-03-08T10:00:16;4.20;99.90
59282;DHT22;45054;52.062;10.010;2024-03-08T10:02:41;4.30;99.90
59282;DHT22;45054;52.062;10.010;2024-03-08T10:05:07;4.20;99.90
59282;DHT22;45054;52.062;10.010;2024-03-08T10:07:34;4.20;99.90
59282;DHT22;45054;52.062;10.010;2024-03-08T10:10:00;4.20;99.90
59282;DHT22;45054;52.062;10.010;2024-03-08T10:12:26;4.20;99.90
59282;DHT22;45054;52.062;10.010;2024-03-08T10:14:54;4.30;99.90
59282;DHT22;45054;52.062;10.010;2024-03-08T10:17:21;4.30;99.90
59282;DHT22;45054;52.062;10.010;2024-03-08T10:19:50;4.30;99.90
59282;DHT22;45054;52.062;10.010;2024-03-08T10:22:16;4.30;99.90
59282;DHT22;45054;52.062;10.010;2024-03-08T10:24:44;4.30;99.90
59282;DHT22;45054;52.062;10.010;2024-03-08T10:27:10;4.50;99.90
59282;DHT22;45054;52.062;10.010;2024-03-08T10:29:36;4.60;99.90
59282;DHT22;45054;52.062;10.010;2024-03-08T10:32:01;4.60;99.90
59282;DHT22;45054;52.062;10.010;2024-03-08T10:34:28;4.70;99.90
59282;DHT22;45054;52.062;10.010;2024-03-08T10:36:59;4.70;99.90
59282;DHT22;45054;52.062;10.010;2024-03-08T10:39:31;4.70;99.90
59282;DHT22;45054;52.062;10.010;2024-03-08T10:42:02;4.90;99.90
59282;DHT22;45054;52.062;10.010;2024-03-08T10:44:48;5.00;99.90
59282;DHT22;45054;52.062;10.010;2024-03-08T10:47:18;5.00;99.90
59282;DHT22;45054;52.062;10.010;2024-03-08T10:49:51;5.10;99.90
59282;DHT22;45054;52.062;10.010;2024-03-08T10:52:17;5.10;99.90
59282;DHT22;45054;52.062;10.010;2024-03-08T10:54:45;5.20;99.90
59282;DHT22;45054;52.062;10.010;2024-03-08T10:57:12;5.20;99.90
59282;DHT22;45054;52.062;10.010;2024-03-08T10:59:38;5.30;99.90
59282;DHT22;45054;52.062;10.010;2024-03-08T11:02:04;5.40;99.90
59282;DHT22;45054;52.062;10.010;2024-03-08T11:04:31;5.40;99.90
59282;DHT22;45054;52.062;10.010;2024-03-08T11:07:02;5.50;99.90
59282;DHT22;45054;52.062;10.010;2024-03-08T11:09:29;5.50;99.90
59282;DHT22;45054;52.062;10.010;2024-03-08T11:12:19;5.50;99.90
59282;DHT22;45054;52.062;10.010;2024-03-08T11:14:46;5.60;99.90
59282;DHT22;45054;52.062;10.010;2024-03-08T11:17:13;5.60;99.90
59282;DHT22;45054;52.062;10.010;2024-03-08T11:19:46;5.70;99.90
59282;DHT22;45054;52.062;10.010;2024-03-08T11:22:21;5.70;99.90
59282;DHT22;45054;52.062;10.010;2024-03-08T11:24:47;5.60;99.90
59282;DHT22;45054;52.062;10.010;2024-03-08T11:27:12;5.60;99.90
59282;DHT22;45054;52.062;10.010;2024-03-08T11:29:38;5.50;99.90
59282;DHT22;45054;52.062;10.010;2024-03-08T11:32:05;5.60;99.90
59282;DHT22;45054;52.062;10.010;2024-03-08T11:34:32;5.60;99.90
59282;DHT22;45054;52.062;10.010;2024-03-08T11:36:58;5.60;99.90
59282;DHT22;45054;52.062;10.010;2024-03-08T11:39:25;5.70;99.90
59282;DHT22;45054;52.062;10.010;2024-03-08T11:41:51;5.80;99.90
59282;DHT22;45054;52.062;10.010;2024-03-08T11:44:17;5.90;99.90
59282;DHT22;45054;52.062;10.010;2024-03-08T11:46:43;5.90;99.90
59282;DHT22;45054;52.062;10.010;2024-03-08T11:49:08;5.80;99.90
59282;DHT22;45054;52.062;10.010;2024-03-08T11:51:34;6.00;99.90
59282;DHT22;45054;52.062;10.010;2024-03-08T11:53:59;6.00;99.90
59282;DHT22;45054;52.062;10.010;2024-03-08T11:56:26;6.20;99.90
59282;DHT22;45054;52.062;10.010;2024-03-08T11:58:53;6.30;99.90
59282;DHT22;45054;52.062;10.010;2024-03-08T12:01:19;6.40;99.90
59282;DHT22;45054;52.062;10.010;2024-03-08T12:03:52;6.40;99.90
59282;DHT22;45054;52.062;10.010;2024-03-08T12:06:18;6.50;99.90
59282;DHT22;45054;52.062;10.010;2024-03-08T12:08:45;6.50;99.90
59282;DHT22;45054;52.062;10.010;2024-03-08T12:11:12;6.40;99.90
59282;DHT22;45054;52.062;10.010;2024-03-08T12:13:39;6.40;99.90
59282;DHT22;45054;52.062;10.010;2024-03-08T12:16:05;6.50;99.90
59282;DHT22;45054;52.062;10.010;2024-03-08T12:18:34;6.60;99.90
59282;DHT22;45054;52.062;10.010;2024-03-08T12:21:09;6.60;99.90
59282;DHT22;45054;52.062;10.010;2024-03-08T12:23:35;6.70;99.90
59282;DHT22;45054;52.062;10.010;2024-03-08T12:26:10;6.80;99.90
59282;DHT22;45054;52.062;10.010;2024-03-08T12:28:35;7.00;99.90
59282;DHT22;45054;52.062;10.010;2024-03-08T12:31:02;7.10;99.90
59282;DHT22;45054;52.062;10.010;2024-03-08T12:33:28;7.30;99.90
59282;DHT22;45054;52.062;10.010;2024-03-08T12:35:54;7.40;99.90
59282;DHT22;45054;52.062;10.010;2024-03-08T12:38:20;7.40;99.90
59282;DHT22;45054;52.062;10.010;2024-03-08T12:40:47;7.40;99.90
59282;DHT22;45054;52.062;10.010;2024-03-08T12:43:12;7.50;99.90
59282;DHT22;45054;52.062;10.010;2024-03-08T12:45:38;7.40;99.90
59282;DHT22;45054;52.062;10.010;2024-03-08T12:48:13;7.40;99.90
59282;DHT22;45054;52.062;10.010;2024-03-08T12:50:39;7.40;99.90
59282;DHT22;45054;52.062;10.010;2024-03-08T12:53:04;7.40;99.90
59282;DHT22;45054;52.062;10.010;2024-03-08T12:55:30;7.40;99.90
59282;DHT22;45054;52.062;10.010;2024-03-08T12:57:55;7.50;99.90
59282;DHT22;45054;52.062;10.010;2024-03-08T13:00:21;7.50;99.90
59282;DHT22;45054;52.062;10.010;2024-03-08T13:02:47;7.60;99.90
59282;DHT22;45054;52.062;10.010;2024-03-08T13:05:14;7.60;99.90
59282;DHT22;45054;52.062;10.010;2024-03-08T13:07:40;7.70;99.90
59282;DHT22;45054;52.062;10.010;2024-03-08T13:10:07;7.90;99.90
59282;DHT22;45054;52.062;10.010;2024-03-08T13:12:33;8.00;99.90
59282;DHT22;45054;52.062;10.010;2024-03-08T13:14:58;8.10;99.90
59282;DHT22;45054;52.062;10.010;2024-03-08T13:17:24;8.00;99.90
59282;DHT22;45054;52.062;10.010;2024-03-08T13:19:49;8.00;99.90
59282;DHT22;45054;52.062;10.010;2024-03-08T13:22:16;8.10;99.90
59282;DHT22;45054;52.062;10.010;2024-03-08T13:24:42;8.20;99.90
59282;DHT22;45054;52.062;10.010;2024-03-08T13:27:08;8.00;99.90
59282;DHT22;45054;52.062;10.010;2024-03-08T13:29:33;8.00;99.90
59282;DHT22;45054;52.062;10.010;2024-03-08T13:31:59;7.80;99.90
59282;DHT22;45054;52.062;10.010;2024-03-08T13:34:24;7.80;99.90
59282;DHT22;45054;52.062;10.010;2024-03-08T13:36:50;7.80;99.90
59282;DHT22;45054;52.062;10.010;2024-03-08T13:39:17;7.90;99.90
59282;DHT22;45054;52.062;10.010;2024-03-08T13:41:42;8.00;99.90
59282;DHT22;45054;52.062;10.010;2024-03-08T13:44:08;7.90;99.90
59282;DHT22;45054;52.062;10.010;2024-03-08T13:46:33;8.00;99.90
59282;DHT22;45054;52.062;10.010;2024-03-08T13:49:03;8.10;99.90
59282;DHT22;45054;52.062;10.010;2024-03-08T13:51:29;8.20;99.90
59282;DHT22;45054;52.062;10.010;2024-03-08T13:53:54;8.40;99.90
59282;DHT22;45054;52.062;10.010;2024-03-08T13:56:21;8.30;99.90
59282;DHT22;45054;52.062;10.010;2024-03-08T13:58:47;8.30;99.90
59282;DHT22;45054;52.062;10.010;2024-03-08T14:01:12;8.40;99.90
59282;DHT22;45054;52.062;10.010;2024-03-08T14:03:38;8.40;99.90
59282;DHT22;45054;52.062;10.010;2024-03-08T14:06:04;8.40;99.90
59282;DHT22;45054;52.062;10.010;2024-03-08T14:08:29;8.20;99.90
59282;DHT22;45054;52.062;10.010;2024-03-08T14:10:55;8.20;99.90
59282;DHT22;45054;52.062;10.010;2024-03-08T14:13:22;8.30;99.90
59282;DHT22;45054;52.062;10.010;2024-03-08T14:15:47;8.30;99.90
59282;DHT22;45054;52.062;10.010;2024-03-08T14:18:13;8.40;99.90
59282;DHT22;45054;52.062;10.010;2024-03-08T14:20:39;8.30;99.90
59282;DHT22;45054;52.062;10.010;2024-03-08T14:23:04;8.30;99.90
59282;DHT22;45054;52.062;10.010;2024-03-08T14:25:30;8.30;99.90
59282;DHT22;45054;52.062;10.010;2024-03-08T14:27:55;8.30;99.90
59282;DHT22;45054;52.062;10.010;2024-03-08T14:30:22;8.40;99.90
59282;DHT22;45054;52.062;10.010;2024-03-08T14:32:48;8.50;99.90
59282;DHT22;45054;52.062;10.010;2024-03-08T14:35:14;8.60;99.90
59282;DHT22;45054;52.062;10.010;2024-03-08T14:37:40;8.60;99.90
59282;DHT22;45054;52.062;10.010;2024-03-08T14:40:06;8.60;99.90
59282;DHT22;45054;52.062;10.010;2024-03-08T14:42:32;8.70;99.90
59282;DHT22;45054;52.062;10.010;2024-03-08T14:44:58;8.70;99.90
59282;DHT22;45054;52.062;10.010;2024-03-08T14:47:25;8.60;99.90
59282;DHT22;45054;52.062;10.010;2024-03-08T14:49:50;8.50;99.90
59282;DHT22;45054;52.062;10.010;2024-03-08T14:52:16;8.60;99.90
59282;DHT22;45054;52.062;10.010;2024-03-08T14:54:41;8.70;99.90
59282;DHT22;45054;52.062;10.010;2024-03-08T14:57:07;8.70;99.90
59282;DHT22;45054;52.062;10.010;2024-03-08T14:59:32;8.60;99.90
59282;DHT22;45054;52.062;10.010;2024-03-08T15:01:58;8.60;99.90
59282;DHT22;45054;52.062;10.010;2024-03-08T15:04:25;8.70;99.90
59282;DHT22;45054;52.062;10.010;2024-03-08T15:06:50;8.90;99.90
59282;DHT22;45054;52.062;10.010;2024-03-08T15:09:16;8.90;99.90
59282;DHT22;45054;52.062;10.010;2024-03-08T15:11:41;8.90;99.90
59282;DHT22;45054;52.062;10.010;2024-03-08T15:14:09;8.90;99.90
59282;DHT22;45054;52.062;10.010;2024-03-08T15:16:35;8.90;99.90
59282;DHT22;45054;52.062;10.010;2024-03-08T15:19:01;8.90;99.90
59282;DHT22;45054;52.062;10.010;2024-03-08T15:21:27;8.90;99.90
59282;DHT22;45054;52.062;10.010;2024-03-08T15:23:53;9.00;99.90